Time;durP1;ratioP1;P1;durP2;ratioP2;P2;SDS_P1;SDS_P2;PMS_P1;PMS_P2;Temp;Humidity;BMP_temperature;BMP_pressure;BME280_temperature;BME280_humidity;BME280_pressure;Samples;Min_cycle;Max_cycle;Signal;HPM_P1;HPM_P2
2021/01/20 00:03:04;;;;;;;40.35;14.40;;;;;;;;;;8255464;28;20360;-76
2021/01/20 00:07:07;;;;;;;41.58;13.48;;;;;;;;;;8256858;28;20478;-75
2021/01/20 00:11:10;;;;;;;40.85;12.80;;;;;;;;;;8256241;28;20053;-76
2021/01/20 00:15:21;;;;;;;39.75;15.60;;;;;;;;;;8255234;28;20695;-75
2021/01/20 00:19:24;;;;;;;27.23;11.48;;;;;;;;;;8256888;28;20383;-75
2021/01/20 00:23:28;;;;;;;40.63;14.32;;;;;;;;;;8277256;28;20115;-75
2021/01/20 00:27:31;;;;;;;27.25;12.10;;;;;;;;;;8263137;28;20479;-75
2021/01/20 00:31:34;;;;;;;23.63;9.93;;;;;;;;;;8262405;28;20405;-76
2021/01/20 00:35:37;;;;;;;33.50;13.55;;;;;;;;;;8263606;28;20380;-74
2021/01/20 00:39:40;;;;;;;32.38;12.35;;;;;;;;;;8262604;28;20475;-75
2021/01/20 00:43:43;;;;;;;30.85;9.48;;;;;;;;;;8262913;28;20045;-76
2021/01/20 00:47:46;;;;;;;45.45;15.98;;;;;;;;;;8277015;28;20048;-77
2021/01/20 00:51:50;;;;;;;35.17;13.23;;;;;;;;;;8260832;28;20480;-76
2021/01/20 00:55:53;;;;;;;45.63;15.88;;;;;;;;;;8261414;28;20502;-76
2021/01/20 00:59:56;;;;;;;45.40;15.73;;;;;;;;;;8266336;28;20388;-74
2021/01/20 01:03:59;;;;;;;42.00;15.90;;;;;;;;;;8265871;28;20502;-75
2021/01/20 01:08:03;;;;;;;38.55;15.75;;;;;;;;;;8269858;28;20493;-76
2021/01/20 01:12:13;;;;;;;27.25;11.18;;;;;;;;;;8285781;28;20071;-77
2021/01/20 01:16:17;;;;;;;34.75;14.18;;;;;;;;;;8276249;28;20512;-74
2021/01/20 01:20:20;;;;;;;18.38;8.73;;;;;;;;;;8289370;28;20051;-76
2021/01/20 01:24:24;;;;;;;38.13;15.50;;;;;;;;;;8279516;28;20471;-75
2021/01/20 01:28:27;;;;;;;33.05;12.38;;;;;;;;;;8275551;28;20040;-76
2021/01/20 01:32:46;;;;;;;35.95;14.10;;;;;;;;;;8272874;28;20118;-74
2021/01/20 01:36:57;;;;;;;30.20;12.90;;;;;;;;;;8273850;28;20372;-75
2021/01/20 01:41:19;;;;;;;23.75;10.20;;;;;;;;;;8292364;28;20635;-75
2021/01/20 01:45:39;;;;;;;23.35;10.13;;;;;;;;;;8276233;28;20399;-74
2021/01/20 01:49:42;;;;;;;33.72;12.75;;;;;;;;;;8268631;28;20052;-74
2021/01/20 01:53:51;;;;;;;26.90;11.77;;;;;;;;;;8251300;28;20459;-76
2021/01/20 01:58:03;;;;;;;27.83;12.10;;;;;;;;;;8261631;28;20096;-74
2021/01/20 02:02:09;;;;;;;24.65;12.00;;;;;;;;;;8259536;28;20522;-74
2021/01/20 02:06:13;;;;;;;23.42;11.00;;;;;;;;;;8257910;28;20414;-74
2021/01/20 02:10:17;;;;;;;17.95;9.02;;;;;;;;;;8275215;28;20387;-74
2021/01/20 02:14:44;;;;;;;24.90;9.45;;;;;;;;;;8258788;28;20053;-75
2021/01/20 02:19:01;;;;;;;17.75;9.68;;;;;;;;;;8257831;28;20045;-74
2021/01/20 02:23:17;;;;;;;22.58;10.85;;;;;;;;;;8258149;28;20463;-73
2021/01/20 02:28:01;;;;;;;19.55;10.73;;;;;;;;;;8242888;28;20048;-74
2021/01/20 02:32:08;;;;;;;16.92;8.35;;;;;;;;;;8257781;28;20590;-74
2021/01/20 02:36:12;;;;;;;18.58;8.82;;;;;;;;;;8241969;28;20379;-74
2021/01/20 02:40:27;;;;;;;26.48;11.25;;;;;;;;;;8258446;28;20371;-74
2021/01/20 02:44:41;;;;;;;21.13;10.82;;;;;;;;;;8259967;28;20395;-74
2021/01/20 02:49:08;;;;;;;22.75;11.10;;;;;;;;;;8262256;28;20371;-75
2021/01/20 02:53:30;;;;;;;21.48;10.55;;;;;;;;;;8278305;28;20472;-73
2021/01/20 02:58:10;;;;;;;34.30;11.00;;;;;;;;;;8251114;28;20472;-74
2021/01/20 03:02:30;;;;;;;18.30;10.35;;;;;;;;;;8281211;28;20356;-73
2021/01/20 03:06:36;;;;;;;17.90;9.10;;;;;;;;;;8260831;28;20414;-74
2021/01/20 03:10:39;;;;;;;20.45;9.15;;;;;;;;;;8259145;28;20494;-74
2021/01/20 03:14:45;;;;;;;15.13;8.68;;;;;;;;;;8260177;28;20127;-75
2021/01/20 03:18:48;;;;;;;12.88;8.13;;;;;;;;;;8267009;28;20357;-73
2021/01/20 03:22:51;;;;;;;17.70;8.50;;;;;;;;;;8272932;28;20053;-74
2021/01/20 03:26:54;;;;;;;19.67;9.95;;;;;;;;;;8271917;28;20045;-74
2021/01/20 03:30:58;;;;;;;26.63;12.85;;;;;;;;;;8270382;28;20383;-74
2021/01/20 03:35:01;;;;;;;30.58;11.63;;;;;;;;;;8264179;28;20375;-73
2021/01/20 03:39:04;;;;;;;28.65;13.65;;;;;;;;;;8265260;28;20411;-74
2021/01/20 03:43:07;;;;;;;33.45;14.60;;;;;;;;;;8264118;28;20045;-73
2021/01/20 03:47:10;;;;;;;18.33;10.70;;;;;;;;;;8263771;28;20041;-72
2021/01/20 03:51:13;;;;;;;20.38;11.40;;;;;;;;;;8283139;28;20379;-73
2021/01/20 03:55:16;;;;;;;19.60;9.77;;;;;;;;;;8263699;28;20487;-74
2021/01/20 03:59:19;;;;;;;24.27;12.18;;;;;;;;;;8264783;28;20048;-74
2021/01/20 04:03:22;;;;;;;14.75;9.05;;;;;;;;;;8259445;28;20414;-73
2021/01/20 04:07:52;;;;;;;25.23;13.05;;;;;;;;;;8259638;28;20072;-72
2021/01/20 04:11:55;;;;;;;17.10;9.27;;;;;;;;;;8258260;28;20061;-75
2021/01/20 04:15:59;;;;;;;16.73;9.63;;;;;;;;;;8256628;28;20041;-73
2021/01/20 04:20:06;;;;;;;127.72;24.98;;;;;;;;;;8256354;28;20061;-73
2021/01/20 04:24:10;;;;;;;970.72;271.55;;;;;;;;;;8255028;28;20049;-74
2021/01/20 04:28:13;;;;;;;980.70;316.13;;;;;;;;;;8256327;28;20375;-74
2021/01/20 04:32:16;;;;;;;1551.70;565.85;;;;;;;;;;8257949;28;20378;-72
2021/01/20 04:36:19;;;;;;;556.83;192.95;;;;;;;;;;8255929;28;20467;-72
2021/01/20 04:40:23;;;;;;;205.10;57.65;;;;;;;;;;8256168;28;20483;-73
2021/01/20 04:44:26;;;;;;;44.63;16.52;;;;;;;;;;8255849;28;20487;-73
2021/01/20 04:48:35;;;;;;;21.02;10.38;;;;;;;;;;8256123;28;20356;-72
2021/01/20 04:52:44;;;;;;;15.05;10.75;;;;;;;;;;8238932;28;20363;-73
2021/01/20 04:56:48;;;;;;;65.72;36.17;;;;;;;;;;8270918;28;20375;-71
2021/01/20 05:00:52;;;;;;;110.15;38.67;;;;;;;;;;8269803;28;20369;-72
2021/01/20 05:04:55;;;;;;;222.02;41.80;;;;;;;;;;8270290;28;20384;-72
2021/01/20 05:08:58;;;;;;;374.00;64.20;;;;;;;;;;8275773;28;20379;-72
2021/01/20 05:13:01;;;;;;;369.48;57.47;;;;;;;;;;8261475;28;20053;-72
2021/01/20 05:17:08;;;;;;;452.73;77.38;;;;;;;;;;8261200;28;20045;-72
2021/01/20 05:21:18;;;;;;;221.88;36.10;;;;;;;;;;8261520;28;20407;-72
2021/01/20 05:25:30;;;;;;;237.10;37.47;;;;;;;;;;8276244;28;20410;-72
2021/01/20 05:29:33;;;;;;;361.52;56.55;;;;;;;;;;8260770;28;20485;-72
2021/01/20 05:33:40;;;;;;;381.90;61.03;;;;;;;;;;8275776;28;20589;-72
2021/01/20 05:37:45;;;;;;;427.48;68.78;;;;;;;;;;8261072;28;20482;-72
2021/01/20 05:42:00;;;;;;;174.43;29.42;;;;;;;;;;8260240;28;20498;-73
2021/01/20 05:46:04;;;;;;;244.32;37.40;;;;;;;;;;8275282;28;20475;-72
2021/01/20 05:50:08;;;;;;;194.13;34.85;;;;;;;;;;8257354;28;20475;-72
2021/01/20 05:54:13;;;;;;;331.13;50.38;;;;;;;;;;8287730;28;20455;-72
2021/01/20 05:58:16;;;;;;;316.73;51.17;;;;;;;;;;8306804;28;20036;-72
2021/01/20 06:02:20;;;;;;;403.50;65.60;;;;;;;;;;8291424;28;20493;-72
2021/01/20 06:06:23;;;;;;;245.60;41.10;;;;;;;;;;8288440;28;20497;-72
2021/01/20 06:10:27;;;;;;;444.75;73.05;;;;;;;;;;8292050;28;20390;-72
2021/01/20 06:14:30;;;;;;;363.00;57.08;;;;;;;;;;8293021;28;20471;-72
2021/01/20 06:18:37;;;;;;;248.70;44.90;;;;;;;;;;8305493;28;20470;-72
2021/01/20 06:22:51;;;;;;;;;;;;;;;;;;8291180;28;20487;-72
2021/01/20 06:27:31;;;;;;;250.27;37.78;;;;;;;;;;8289760;28;19943;-72
2021/01/20 06:31:42;;;;;;;248.80;40.55;;;;;;;;;;8300638;28;20406;-73
2021/01/20 06:35:50;;;;;;;125.10;25.48;;;;;;;;;;8306377;28;20478;-72
2021/01/20 06:39:53;;;;;;;;;;;;;;;;;;8306342;28;20378;-72
2021/01/20 06:44:15;;;;;;;253.82;37.95;;;;;;;;;;8289596;28;20275;-73
2021/01/20 06:48:18;;;;;;;177.40;31.60;;;;;;;;;;8291281;28;20459;-72
2021/01/20 06:52:22;;;;;;;247.52;35.80;;;;;;;;;;8285394;28;20378;-72
2021/01/20 06:56:40;;;;;;;122.15;23.23;;;;;;;;;;8302305;28;20409;-73
2021/01/20 07:00:43;;;;;;;142.82;28.88;;;;;;;;;;8290236;28;20472;-73
2021/01/20 07:04:53;;;;;;;141.57;28.40;;;;;;;;;;8287511;28;20509;-72
2021/01/20 07:08:56;;;;;;;181.75;34.83;;;;;;;;;;8290010;28;20414;-73
2021/01/20 07:13:18;;;;;;;165.63;37.58;;;;;;;;;;8290618;28;20380;-72
2021/01/20 07:17:23;;;;;;;101.15;27.85;;;;;;;;;;8291202;28;20348;-72
2021/01/20 07:21:26;;;;;;;137.93;31.00;;;;;;;;;;8290050;28;20393;-73
2021/01/20 07:25:30;;;;;;;53.85;18.98;;;;;;;;;;8305214;28;20501;-72
2021/01/20 07:29:33;;;;;;;50.40;16.38;;;;;;;;;;8289449;28;20463;-72
2021/01/20 07:33:49;;;;;;;39.47;13.60;;;;;;;;;;8304664;28;20382;-72
2021/01/20 07:38:02;;;;;;;134.13;26.13;;;;;;;;;;8304105;28;20375;-72
2021/01/20 07:42:06;;;;;;;90.53;27.02;;;;;;;;;;8290105;28;20390;-73
2021/01/20 07:46:22;;;;;;;222.15;45.65;;;;;;;;;;8304898;28;20045;-72
2021/01/20 07:50:45;;;;;;;221.70;49.38;;;;;;;;;;8304899;28;20471;-72
2021/01/20 07:54:48;;;;;;;149.05;34.97;;;;;;;;;;8269077;28;20044;-71
2021/01/20 07:58:52;;;;;;;196.27;36.55;;;;;;;;;;8289187;28;20471;-72
2021/01/20 08:03:00;;;;;;;158.70;31.27;;;;;;;;;;8284195;28;20375;-71
2021/01/20 08:07:04;;;;;;;181.82;43.75;;;;;;;;;;8303671;28;20406;-71
2021/01/20 08:11:07;;;;;;;194.68;39.25;;;;;;;;;;8303882;28;20359;-71
2021/01/20 08:15:12;;;;;;;94.28;24.63;;;;;;;;;;8303981;28;20382;-71
2021/01/20 08:19:18;;;;;;;93.43;24.75;;;;;;;;;;8288799;28;20501;-71
2021/01/20 08:23:50;;;;;;;92.97;23.90;;;;;;;;;;8304093;28;20487;-71
2021/01/20 08:27:53;;;;;;;41.90;14.63;;;;;;;;;;8301843;28;20097;-71
2021/01/20 08:32:09;;;;;;;56.72;15.85;;;;;;;;;;8304308;28;20475;-71
2021/01/20 08:36:23;;;;;;;123.63;32.40;;;;;;;;;;8288733;28;20402;-71
2021/01/20 08:40:30;;;;;;;145.60;34.33;;;;;;;;;;8289352;28;20486;-71
2021/01/20 08:44:33;;;;;;;93.32;23.55;;;;;;;;;;8293148;28;20379;-71
2021/01/20 08:48:36;;;;;;;152.05;35.58;;;;;;;;;;8293235;28;20049;-70
2021/01/20 08:52:49;;;;;;;112.32;28.50;;;;;;;;;;8309003;28;20383;-71
2021/01/20 08:57:13;;;;;;;71.38;23.27;;;;;;;;;;8295245;28;20410;-71
2021/01/20 09:01:17;;;;;;;139.57;36.08;;;;;;;;;;8306599;28;20487;-71
2021/01/20 09:05:33;;;;;;;112.35;30.88;;;;;;;;;;8294269;28;20391;-72
2021/01/20 09:09:37;;;;;;;43.67;15.88;;;;;;;;;;8295048;28;20048;-71
2021/01/20 09:13:44;;;;;;;59.33;15.73;;;;;;;;;;8306446;28;20067;-72
2021/01/20 09:17:48;;;;;;;39.00;13.82;;;;;;;;;;8306693;28;20066;-71
2021/01/20 09:21:51;;;;;;;61.60;19.80;;;;;;;;;;8293457;28;20111;-71
2021/01/20 09:25:55;;;;;;;146.45;40.58;;;;;;;;;;8292223;28;20479;-71
2021/01/20 09:29:58;;;;;;;36.67;15.93;;;;;;;;;;8293231;28;20390;-71
2021/01/20 09:34:01;;;;;;;60.33;18.52;;;;;;;;;;8274353;28;20466;-71
2021/01/20 09:38:05;;;;;;;26.45;12.48;;;;;;;;;;8308344;28;20474;-71
2021/01/20 09:42:09;;;;;;;64.45;22.85;;;;;;;;;;8291770;28;20371;-71
2021/01/20 09:46:12;;;;;;;34.45;13.65;;;;;;;;;;8290861;28;20379;-72
2021/01/20 09:50:17;;;;;;;43.47;15.32;;;;;;;;;;8293570;28;20482;-72
2021/01/20 09:54:21;;;;;;;28.23;12.68;;;;;;;;;;8294323;28;20387;-70
2021/01/20 09:58:24;;;;;;;44.03;15.82;;;;;;;;;;8276221;28;20359;-71
2021/01/20 10:02:27;;;;;;;64.25;17.48;;;;;;;;;;8293382;28;20383;-71
2021/01/20 10:06:31;;;;;;;84.13;22.33;;;;;;;;;;8292788;28;20470;-71
2021/01/20 10:10:34;;;;;;;57.05;18.92;;;;;;;;;;8307225;28;20383;-71
2021/01/20 10:14:38;;;;;;;33.20;12.13;;;;;;;;;;8292628;28;20045;-72
2021/01/20 10:18:42;;;;;;;37.83;13.15;;;;;;;;;;8307231;28;20375;-71
2021/01/20 10:22:46;;;;;;;28.70;11.68;;;;;;;;;;8292109;28;20352;-71
2021/01/20 10:26:49;;;;;;;52.22;19.48;;;;;;;;;;8291652;28;20463;-71
2021/01/20 10:30:53;;;;;;;39.13;14.85;;;;;;;;;;8291927;28;20367;-72
2021/01/20 10:34:57;;;;;;;50.08;16.65;;;;;;;;;;8291490;28;20482;-71
2021/01/20 10:39:00;;;;;;;31.10;11.07;;;;;;;;;;8291751;28;20455;-71
2021/01/20 10:43:03;;;;;;;37.10;14.40;;;;;;;;;;8306726;28;20367;-71
2021/01/20 10:47:07;;;;;;;35.90;13.32;;;;;;;;;;8289919;28;20370;-71
2021/01/20 10:51:11;;;;;;;35.03;12.70;;;;;;;;;;8305643;28;20408;-71
2021/01/20 10:55:14;;;;;;;17.80;7.40;;;;;;;;;;8306117;28;20481;-71
2021/01/20 10:59:17;;;;;;;20.90;9.30;;;;;;;;;;8287125;28;20396;-72
2021/01/20 11:03:22;;;;;;;18.88;8.77;;;;;;;;;;8288601;28;20410;-71
2021/01/20 11:07:25;;;;;;;21.25;9.07;;;;;;;;;;8287977;28;20375;-71
2021/01/20 11:11:28;;;;;;;38.97;14.95;;;;;;;;;;8290692;28;20492;-71
2021/01/20 11:15:32;;;;;;;28.48;10.05;;;;;;;;;;8300075;28;20471;-72
2021/01/20 11:19:35;;;;;;;22.50;11.10;;;;;;;;;;8290345;28;20414;-71
2021/01/20 11:23:39;;;;;;;23.58;9.52;;;;;;;;;;8290414;28;20390;-71
2021/01/20 11:27:44;;;;;;;21.63;8.85;;;;;;;;;;8304461;28;20474;-71
2021/01/20 11:31:48;;;;;;;16.70;7.93;;;;;;;;;;8290043;28;20356;-71
2021/01/20 11:35:52;;;;;;;19.33;8.95;;;;;;;;;;8287591;28;20479;-74
2021/01/20 11:39:58;;;;;;;20.50;9.70;;;;;;;;;;8282859;28;20403;-72
2021/01/20 11:44:02;;;;;;;28.70;13.02;;;;;;;;;;8304936;28;20045;-74
2021/01/20 11:48:07;;;;;;;24.92;11.25;;;;;;;;;;8286837;28;20451;-72
2021/01/20 11:52:10;;;;;;;15.30;7.28;;;;;;;;;;8304553;28;20493;-73
2021/01/20 11:56:14;;;;;;;25.42;11.13;;;;;;;;;;8272063;28;20386;-74
2021/01/20 12:00:20;;;;;;;14.43;6.05;;;;;;;;;;8288939;28;20410;-73
2021/01/20 12:04:24;;;;;;;21.02;9.65;;;;;;;;;;8287201;28;20071;-72
2021/01/20 12:08:27;;;;;;;16.20;8.25;;;;;;;;;;8272031;28;20464;-73
2021/01/20 12:12:30;;;;;;;19.83;9.75;;;;;;;;;;8289445;28;20456;-73
2021/01/20 12:16:33;;;;;;;12.05;5.78;;;;;;;;;;8307710;28;20467;-73
2021/01/20 12:20:36;;;;;;;11.43;5.13;;;;;;;;;;8296165;28;20474;-72
2021/01/20 12:24:39;;;;;;;14.13;6.18;;;;;;;;;;8292875;28;20493;-72
2021/01/20 12:28:42;;;;;;;12.30;5.97;;;;;;;;;;8295410;28;20391;-72
2021/01/20 12:32:46;;;;;;;14.35;6.38;;;;;;;;;;8279275;28;20044;-72
2021/01/20 12:36:50;;;;;;;31.58;11.15;;;;;;;;;;8295501;28;20403;-75
2021/01/20 12:40:53;;;;;;;21.20;8.38;;;;;;;;;;8295224;28;20078;-73
2021/01/20 12:44:56;;;;;;;30.88;10.00;;;;;;;;;;8294670;28;20374;-73
2021/01/20 12:48:59;;;;;;;21.92;9.85;;;;;;;;;;8296655;28;20405;-73
2021/01/20 12:53:05;;;;;;;31.55;13.07;;;;;;;;;;8293666;28;20474;-74
2021/01/20 12:57:08;;;;;;;38.55;14.32;;;;;;;;;;8293578;28;20475;-72
2021/01/20 13:01:11;;;;;;;21.77;8.70;;;;;;;;;;8294381;28;20364;-74
2021/01/20 13:05:14;;;;;;;57.88;19.67;;;;;;;;;;8293352;28;20452;-73
2021/01/20 13:09:18;;;;;;;52.50;19.98;;;;;;;;;;8293919;28;20056;-75
2021/01/20 13:13:21;;;;;;;31.67;12.40;;;;;;;;;;8308831;28;20475;-74
2021/01/20 13:17:24;;;;;;;19.02;7.40;;;;;;;;;;8294090;28;20381;-73
2021/01/20 13:21:28;;;;;;;16.42;7.03;;;;;;;;;;8291083;28;20485;-74
2021/01/20 13:25:33;;;;;;;28.13;12.45;;;;;;;;;;8292300;28;20239;-74
2021/01/20 13:29:37;;;;;;;59.55;25.75;;;;;;;;;;8307785;28;20471;-74
2021/01/20 13:33:40;;;;;;;43.53;19.30;;;;;;;;;;8293739;28;20472;-73
2021/01/20 13:37:43;;;;;;;70.43;29.70;;;;;;;;;;8292712;28;20072;-74
2021/01/20 13:41:46;;;;;;;71.57;31.55;;;;;;;;;;8293294;28;20455;-74
2021/01/20 13:45:49;;;;;;;57.33;27.77;;;;;;;;;;8293075;28;20056;-75
2021/01/20 13:49:53;;;;;;;45.85;21.13;;;;;;;;;;8310204;28;20348;-75
2021/01/20 13:53:56;;;;;;;47.90;21.55;;;;;;;;;;8293194;28;20371;-74
2021/01/20 13:58:00;;;;;;;36.40;14.35;;;;;;;;;;8291101;28;20060;-75
2021/01/20 14:02:05;;;;;;;43.53;16.30;;;;;;;;;;8292162;28;20386;-76
2021/01/20 14:06:11;;;;;;;41.72;17.02;;;;;;;;;;8293118;28;20037;-75
2021/01/20 14:10:15;;;;;;;109.55;36.05;;;;;;;;;;8308219;28;20679;-75
2021/01/20 14:14:18;;;;;;;90.15;37.13;;;;;;;;;;8307396;28;20067;-75
2021/01/20 14:18:21;;;;;;;65.60;25.63;;;;;;;;;;8290994;28;20055;-76
2021/01/20 14:22:25;;;;;;;54.88;26.45;;;;;;;;;;8292692;28;20362;-76
2021/01/20 14:26:28;;;;;;;74.60;33.03;;;;;;;;;;8289987;28;20459;-75
2021/01/20 14:30:32;;;;;;;58.63;23.58;;;;;;;;;;8289438;28;20463;-75
2021/01/20 14:34:35;;;;;;;67.60;32.22;;;;;;;;;;8304029;28;20381;-76
2021/01/20 14:38:38;;;;;;;84.65;38.45;;;;;;;;;;8285851;28;20471;-75
2021/01/20 14:42:41;;;;;;;1509.68;496.35;;;;;;;;;;8292400;28;20488;-75
2021/01/20 14:46:46;;;;;;;828.20;289.15;;;;;;;;;;8293010;28;20386;-75
2021/01/20 14:50:50;;;;;;;1516.45;571.55;;;;;;;;;;8294050;28;20679;-75
2021/01/20 14:54:53;;;;;;;1445.05;564.40;;;;;;;;;;8294614;28;20382;-75
2021/01/20 14:58:56;;;;;;;795.80;327.05;;;;;;;;;;8296686;28;20387;-75
2021/01/20 15:03:01;;;;;;;1189.90;514.22;;;;;;;;;;8299448;28;20356;-76
2021/01/20 15:07:08;;;;;;;401.42;121.55;;;;;;;;;;8297098;28;20067;-76
2021/01/20 15:11:12;;;;;;;125.38;53.28;;;;;;;;;;8290831;28;20356;-76
2021/01/20 15:15:16;;;;;;;102.03;40.42;;;;;;;;;;8294719;28;20379;-76
2021/01/20 15:19:23;;;;;;;141.32;62.53;;;;;;;;;;8299424;28;20482;-76
2021/01/20 15:23:28;;;;;;;200.05;100.28;;;;;;;;;;8302380;28;20064;-76
2021/01/20 15:27:31;;;;;;;240.93;105.20;;;;;;;;;;8307940;28;20383;-76
2021/01/20 15:31:40;;;;;;;194.20;81.32;;;;;;;;;;8310616;28;20378;-76
2021/01/20 15:35:47;;;;;;;185.60;88.07;;;;;;;;;;8311467;28;20048;-76
2021/01/20 15:39:55;;;;;;;161.82;77.05;;;;;;;;;;8305986;28;20478;-76
2021/01/20 15:44:00;;;;;;;153.35;62.78;;;;;;;;;;8310982;28;20040;-76
2021/01/20 15:48:04;;;;;;;142.55;58.75;;;;;;;;;;8316273;28;20053;-77
2021/01/20 15:52:12;;;;;;;142.30;61.57;;;;;;;;;;8323272;28;20140;-76
2021/01/20 15:56:15;;;;;;;137.27;59.88;;;;;;;;;;8326375;28;20491;-76
2021/01/20 16:00:19;;;;;;;130.75;55.67;;;;;;;;;;8327117;28;20567;-76
2021/01/20 16:04:28;;;;;;;118.40;52.83;;;;;;;;;;8327899;28;20048;-76
2021/01/20 16:08:32;;;;;;;131.23;54.92;;;;;;;;;;8325714;28;20124;-76
2021/01/20 16:12:39;;;;;;;111.55;49.38;;;;;;;;;;8329422;28;20112;-76
2021/01/20 16:16:44;;;;;;;103.47;45.70;;;;;;;;;;8319549;28;20064;-76
2021/01/20 16:20:48;;;;;;;120.15;48.55;;;;;;;;;;8319186;28;20140;-76
2021/01/20 16:24:52;;;;;;;111.68;48.83;;;;;;;;;;8311955;28;20391;-77
2021/01/20 16:28:56;;;;;;;113.50;49.00;;;;;;;;;;8308891;28;20045;-76
2021/01/20 16:33:01;;;;;;;191.82;67.03;;;;;;;;;;8307758;28;20713;-76
2021/01/20 16:37:04;;;;;;;251.10;78.80;;;;;;;;;;8304501;28;20055;-76
2021/01/20 16:41:08;;;;;;;239.82;81.60;;;;;;;;;;8305404;28;20053;-77
2021/01/20 16:45:13;;;;;;;238.23;77.07;;;;;;;;;;8306590;28;20387;-77
2021/01/20 16:49:16;;;;;;;218.43;72.28;;;;;;;;;;8300653;28;20075;-76
2021/01/20 16:53:20;;;;;;;208.27;72.43;;;;;;;;;;8299931;28;20498;-77
2021/01/20 16:57:23;;;;;;;351.30;99.40;;;;;;;;;;8284842;28;20365;-76
2021/01/20 17:01:27;;;;;;;399.92;111.13;;;;;;;;;;8263279;28;20057;-76
2021/01/20 17:05:32;;;;;;;115.88;44.28;;;;;;;;;;8249496;28;20383;-76
2021/01/20 17:09:45;;;;;;;144.32;50.75;;;;;;;;;;8223282;28;20066;-76
2021/01/20 17:13:53;;;;;;;101.78;43.70;;;;;;;;;;8226226;28;20498;-76
2021/01/20 17:17:56;;;;;;;89.40;42.75;;;;;;;;;;8224114;28;20052;-77
2021/01/20 17:22:01;;;;;;;104.63;46.45;;;;;;;;;;8227208;28;20053;-78
2021/01/20 17:26:05;;;;;;;825.17;194.80;;;;;;;;;;8224956;28;20349;-76
2021/01/20 17:30:09;;;;;;;218.10;64.25;;;;;;;;;;8208855;28;20353;-76
2021/01/20 17:34:13;;;;;;;132.23;41.90;;;;;;;;;;8209139;28;20438;-77
2021/01/20 17:38:17;;;;;;;101.78;35.28;;;;;;;;;;8239600;28;20489;-76
2021/01/20 17:42:24;;;;;;;70.85;29.92;;;;;;;;;;8273552;28;20378;-76
2021/01/20 17:46:27;;;;;;;65.55;26.65;;;;;;;;;;8257212;28;20364;-77
2021/01/20 17:50:36;;;;;;;64.35;26.83;;;;;;;;;;8257484;28;20095;-76
2021/01/20 17:54:45;;;;;;;79.72;31.42;;;;;;;;;;8274425;28;20053;-76
2021/01/20 17:58:56;;;;;;;230.85;60.20;;;;;;;;;;8179267;28;20056;-76
2021/01/20 18:03:32;;;;;;;135.98;45.25;;;;;;;;;;8264464;28;20383;-76
2021/01/20 18:07:35;;;;;;;117.63;41.15;;;;;;;;;;8284098;28;20464;-76
2021/01/20 18:11:40;;;;;;;113.82;35.83;;;;;;;;;;8259662;28;20063;-76
2021/01/20 18:15:43;;;;;;;130.73;44.63;;;;;;;;;;8274459;28;20364;-75
2021/01/20 18:19:50;;;;;;;104.57;39.70;;;;;;;;;;8261408;28;20497;-76
2021/01/20 18:23:53;;;;;;;82.50;32.28;;;;;;;;;;8202740;28;20345;-75
2021/01/20 18:28:01;;;;;;;96.80;32.72;;;;;;;;;;8258188;28;20459;-75
2021/01/20 18:32:08;;;;;;;95.03;36.65;;;;;;;;;;8259324;28;20486;-75
2021/01/20 18:36:14;;;;;;;84.72;34.00;;;;;;;;;;8273607;28;20375;-74
2021/01/20 18:40:19;;;;;;;148.63;45.28;;;;;;;;;;8082509;28;5000669;-74
2021/01/20 18:44:22;;;;;;;226.23;66.35;;;;;;;;;;8258813;28;20402;-74
2021/01/20 18:48:28;;;;;;;246.38;110.68;;;;;;;;;;8273811;28;20480;-75
2021/01/20 18:52:32;;;;;;;247.35;78.57;;;;;;;;;;8257363;28;20383;-75
2021/01/20 18:56:36;;;;;;;243.82;67.95;;;;;;;;;;8257009;28;20487;-75
2021/01/20 19:00:40;;;;;;;159.77;50.25;;;;;;;;;;8257676;28;20471;-74
2021/01/20 19:04:43;;;;;;;132.65;44.35;;;;;;;;;;8236577;28;20415;-74
2021/01/20 19:08:47;;;;;;;164.25;60.63;;;;;;;;;;8221496;28;20047;-74
2021/01/20 19:12:51;;;;;;;89.97;39.33;;;;;;;;;;8205120;28;20368;-74
2021/01/20 19:16:54;;;;;;;102.43;41.97;;;;;;;;;;8220919;28;20072;-74
2021/01/20 19:21:01;;;;;;;92.65;37.10;;;;;;;;;;8204977;28;20387;-74
2021/01/20 19:25:06;;;;;;;122.93;51.38;;;;;;;;;;8220267;28;20049;-74
2021/01/20 19:29:11;;;;;;;99.07;43.42;;;;;;;;;;8188765;28;20375;-74
2021/01/20 19:33:15;;;;;;;82.57;31.15;;;;;;;;;;8204612;28;20384;-74
2021/01/20 19:37:22;;;;;;;70.50;26.35;;;;;;;;;;8203900;28;20379;-74
2021/01/20 19:41:26;;;;;;;65.97;26.92;;;;;;;;;;8206372;28;20067;-74
2021/01/20 19:45:29;;;;;;;77.07;29.15;;;;;;;;;;8255599;28;20486;-74
2021/01/20 19:49:32;;;;;;;57.75;25.45;;;;;;;;;;8254738;28;20493;-74
2021/01/20 19:53:37;;;;;;;59.00;24.05;;;;;;;;;;8271510;28;20463;-74
2021/01/20 19:57:41;;;;;;;74.20;27.20;;;;;;;;;;8272035;28;20479;-74
2021/01/20 20:01:49;;;;;;;70.95;26.67;;;;;;;;;;8255393;28;20482;-74
2021/01/20 20:05:53;;;;;;;72.97;30.13;;;;;;;;;;8256926;28;20498;-74
2021/01/20 20:09:57;;;;;;;91.93;31.42;;;;;;;;;;8256404;28;20056;-74
2021/01/20 20:14:04;;;;;;;85.22;30.52;;;;;;;;;;8256337;28;20064;-74
2021/01/20 20:18:08;;;;;;;88.05;33.53;;;;;;;;;;8254329;28;20067;-74
2021/01/20 20:22:12;;;;;;;86.05;31.50;;;;;;;;;;8256046;28;20049;-74
2021/01/20 20:26:16;;;;;;;88.00;30.52;;;;;;;;;;8256414;28;20052;-74
2021/01/20 20:30:21;;;;;;;70.82;27.65;;;;;;;;;;8255820;28;20045;-74
2021/01/20 20:34:24;;;;;;;78.85;31.35;;;;;;;;;;8256436;28;20490;-74
2021/01/20 20:38:28;;;;;;;106.70;39.70;;;;;;;;;;8260229;28;20482;-74
2021/01/20 20:42:31;;;;;;;112.75;38.47;;;;;;;;;;8277763;28;20053;-74
2021/01/20 20:46:35;;;;;;;119.38;44.25;;;;;;;;;;8277360;28;20037;-74
2021/01/20 20:50:40;;;;;;;132.35;45.67;;;;;;;;;;8261220;28;20408;-74
2021/01/20 20:54:44;;;;;;;144.27;47.17;;;;;;;;;;8262546;28;20357;-73
2021/01/20 20:58:47;;;;;;;128.88;45.38;;;;;;;;;;8261776;28;20361;-73
2021/01/20 21:02:54;;;;;;;122.03;43.70;;;;;;;;;;8244229;28;20365;-73
2021/01/20 21:06:57;;;;;;;121.65;40.88;;;;;;;;;;8277028;28;20471;-73
2021/01/20 21:11:00;;;;;;;111.85;38.45;;;;;;;;;;8276850;28;20064;-74
2021/01/20 21:15:04;;;;;;;126.45;46.45;;;;;;;;;;8261361;28;20075;-74
2021/01/20 21:19:10;;;;;;;96.50;35.42;;;;;;;;;;8260219;28;20466;-74
2021/01/20 21:23:14;;;;;;;133.25;45.13;;;;;;;;;;8259314;28;20460;-74
2021/01/20 21:27:17;;;;;;;109.65;37.55;;;;;;;;;;8261287;28;20075;-74
2021/01/20 21:31:20;;;;;;;113.38;36.25;;;;;;;;;;8261108;28;20375;-74
2021/01/20 21:35:24;;;;;;;112.18;39.53;;;;;;;;;;8260726;28;20075;-73
2021/01/20 21:39:27;;;;;;;119.25;42.33;;;;;;;;;;8259032;28;20383;-73
2021/01/20 21:43:31;;;;;;;99.28;35.35;;;;;;;;;;8261400;28;20075;-73
2021/01/20 21:47:34;;;;;;;93.50;34.72;;;;;;;;;;8258609;28;20448;-74
2021/01/20 21:51:37;;;;;;;97.88;34.15;;;;;;;;;;8260424;28;20464;-74
2021/01/20 21:55:41;;;;;;;162.77;43.45;;;;;;;;;;8275417;28;20049;-74
2021/01/20 21:59:44;;;;;;;144.88;41.13;;;;;;;;;;8274715;28;20498;-74
2021/01/20 22:03:47;;;;;;;122.22;38.95;;;;;;;;;;8275016;28;20403;-73
2021/01/20 22:07:53;;;;;;;180.48;47.58;;;;;;;;;;8258566;28;20372;-74
2021/01/20 22:11:56;;;;;;;163.38;54.00;;;;;;;;;;8274404;28;20356;-74
2021/01/20 22:16:02;;;;;;;179.07;65.15;;;;;;;;;;8260491;28;20459;-74
2021/01/20 22:20:06;;;;;;;174.50;66.82;;;;;;;;;;8259964;28;20490;-74
2021/01/20 22:24:09;;;;;;;210.07;68.18;;;;;;;;;;8259108;28;20471;-75
2021/01/20 22:28:12;;;;;;;211.32;63.65;;;;;;;;;;8259131;28;20456;-74
2021/01/20 22:32:15;;;;;;;154.52;54.17;;;;;;;;;;8258479;28;20460;-75
2021/01/20 22:36:19;;;;;;;120.97;43.47;;;;;;;;;;8241074;28;20071;-73
2021/01/20 22:40:22;;;;;;;123.65;42.20;;;;;;;;;;8259327;28;20490;-74
2021/01/20 22:44:26;;;;;;;123.85;43.28;;;;;;;;;;8259084;28;20475;-74
2021/01/20 22:48:29;;;;;;;133.25;47.65;;;;;;;;;;8258489;28;20053;-75
2021/01/20 22:52:32;;;;;;;137.40;50.83;;;;;;;;;;8258873;28;20375;-74
2021/01/20 22:56:36;;;;;;;123.50;45.28;;;;;;;;;;8258081;28;20374;-75
2021/01/20 23:00:39;;;;;;;137.57;46.28;;;;;;;;;;8257404;28;20388;-74
2021/01/20 23:04:43;;;;;;;138.63;48.20;;;;;;;;;;8257235;28;20467;-74
2021/01/20 23:08:46;;;;;;;177.88;55.65;;;;;;;;;;8258764;28;20076;-73
2021/01/20 23:12:49;;;;;;;120.10;42.85;;;;;;;;;;8257634;28;20475;-74
2021/01/20 23:16:54;;;;;;;161.00;56.00;;;;;;;;;;8258564;28;20476;-74
2021/01/20 23:20:58;;;;;;;182.80;63.72;;;;;;;;;;8257381;28;20387;-76
2021/01/20 23:25:04;;;;;;;234.63;80.85;;;;;;;;;;8272222;28;20448;-74
2021/01/20 23:29:07;;;;;;;236.32;87.75;;;;;;;;;;8257809;28;20071;-75
2021/01/20 23:33:12;;;;;;;190.57;72.45;;;;;;;;;;8257202;28;20482;-75
2021/01/20 23:37:15;;;;;;;190.48;69.60;;;;;;;;;;8257160;28;20513;-76
2021/01/20 23:41:18;;;;;;;194.55;63.63;;;;;;;;;;8257566;28;20376;-76
2021/01/20 23:45:22;;;;;;;178.30;60.88;;;;;;;;;;8272086;28;20365;-75